sensor_id;sensor_type;location;lat;lon;timestamp;pressure;altitude;pressure_sealevel;temperature;humidity
7433;BME280;32233;49.500;7.764;2022-10-31T00:01:23;98959.59;;;8.85;100.00
7433;BME280;32233;49.500;7.764;2022-10-31T00:03:51;98958.97;;;8.83;100.00
7433;BME280;32233;49.500;7.764;2022-10-31T00:06:18;98966.41;;;8.80;100.00
7433;BME280;32233;49.500;7.764;2022-10-31T00:08:46;98967.28;;;8.95;100.00
7433;BME280;32233;49.500;7.764;2022-10-31T00:11:13;98966.22;;;9.04;100.00
7433;BME280;32233;49.500;7.764;2022-10-31T00:13:39;98970.13;;;9.08;100.00
7433;BME280;32233;49.500;7.764;2022-10-31T00:16:16;98969.19;;;8.86;100.00
7433;BME280;32233;49.500;7.764;2022-10-31T00:18:43;98966.81;;;8.68;100.00
7433;BME280;32233;49.500;7.764;2022-10-31T00:21:09;98970.81;;;8.87;100.00
7433;BME280;32233;49.500;7.764;2022-10-31T00:23:36;98977.34;;;9.14;100.00
7433;BME280;32233;49.500;7.764;2022-10-31T00:26:03;98984.16;;;9.24;100.00
7433;BME280;32233;49.500;7.764;2022-10-31T00:28:30;98974.31;;;9.03;100.00
7433;BME280;32233;49.500;7.764;2022-10-31T00:31:02;98973.59;;;9.09;100.00
7433;BME280;32233;49.500;7.764;2022-10-31T00:33:29;98974.31;;;9.17;100.00
7433;BME280;32233;49.500;7.764;2022-10-31T00:35:56;98973.56;;;8.94;100.00
7433;BME280;32233;49.500;7.764;2022-10-31T00:38:23;98977.31;;;8.77;100.00
7433;BME280;32233;49.500;7.764;2022-10-31T00:40:49;98974.63;;;8.62;100.00
7433;BME280;32233;49.500;7.764;2022-10-31T00:43:16;98974.50;;;8.78;100.00
7433;BME280;32233;49.500;7.764;2022-10-31T00:45:43;98965.66;;;8.71;100.00
7433;BME280;32233;49.500;7.764;2022-10-31T00:48:10;98973.16;;;8.82;100.00
7433;BME280;32233;49.500;7.764;2022-10-31T00:50:37;98967.81;;;8.90;100.00
7433;BME280;32233;49.500;7.764;2022-10-31T00:53:04;98977.03;;;8.95;100.00
7433;BME280;32233;49.500;7.764;2022-10-31T00:55:31;98973.38;;;8.96;100.00
7433;BME280;32233;49.500;7.764;2022-10-31T00:57:57;98972.56;;;8.95;100.00
7433;BME280;32233;49.500;7.764;2022-10-31T01:00:25;98972.56;;;8.72;100.00
7433;BME280;32233;49.500;7.764;2022-10-31T01:02:52;98967.47;;;8.71;100.00
7433;BME280;32233;49.500;7.764;2022-10-31T01:05:18;98964.91;;;8.62;100.00
7433;BME280;32233;49.500;7.764;2022-10-31T01:07:45;98965.38;;;8.66;100.00
7433;BME280;32233;49.500;7.764;2022-10-31T01:10:12;98968.31;;;8.71;100.00
7433;BME280;32233;49.500;7.764;2022-10-31T01:12:44;98967.56;;;8.77;100.00
7433;BME280;32233;49.500;7.764;2022-10-31T01:15:14;98962.28;;;8.62;100.00
7433;BME280;32233;49.500;7.764;2022-10-31T01:17:42;98964.69;;;8.49;100.00
7433;BME280;32233;49.500;7.764;2022-10-31T01:20:11;98958.97;;;8.60;100.00
7433;BME280;32233;49.500;7.764;2022-10-31T01:22:39;98961.16;;;8.57;100.00
7433;BME280;32233;49.500;7.764;2022-10-31T01:25:07;98960.03;;;8.51;100.00
7433;BME280;32233;49.500;7.764;2022-10-31T01:27:33;98956.41;;;8.52;100.00
7433;BME280;32233;49.500;7.764;2022-10-31T01:30:00;98954.34;;;8.39;100.00
7433;BME280;32233;49.500;7.764;2022-10-31T01:32:27;98956.72;;;8.57;100.00
7433;BME280;32233;49.500;7.764;2022-10-31T01:34:55;98957.56;;;8.73;100.00
7433;BME280;32233;49.500;7.764;2022-10-31T01:37:21;98954.25;;;8.79;100.00
7433;BME280;32233;49.500;7.764;2022-10-31T01:39:48;98958.41;;;8.50;100.00
7433;BME280;32233;49.500;7.764;2022-10-31T01:42:19;98964.44;;;8.59;100.00
7433;BME280;32233;49.500;7.764;2022-10-31T01:44:56;98962.22;;;8.71;100.00
7433;BME280;32233;49.500;7.764;2022-10-31T01:47:32;98968.03;;;8.66;100.00
7433;BME280;32233;49.500;7.764;2022-10-31T01:50:04;98972.91;;;8.69;100.00
7433;BME280;32233;49.500;7.764;2022-10-31T01:52:38;98972.41;;;8.51;100.00
7433;BME280;32233;49.500;7.764;2022-10-31T01:55:16;98962.75;;;8.35;100.00
7433;BME280;32233;49.500;7.764;2022-10-31T01:57:47;98969.19;;;8.32;100.00
7433;BME280;32233;49.500;7.764;2022-10-31T02:00:16;98960.16;;;8.27;100.00
7433;BME280;32233;49.500;7.764;2022-10-31T02:02:45;98967.13;;;8.19;100.00
7433;BME280;32233;49.500;7.764;2022-10-31T02:05:19;98967.94;;;8.20;100.00
7433;BME280;32233;49.500;7.764;2022-10-31T02:10:26;98963.63;;;8.58;100.00
7433;BME280;32233;49.500;7.764;2022-10-31T02:12:55;98963.28;;;8.61;100.00
7433;BME280;32233;49.500;7.764;2022-10-31T02:15:24;98966.34;;;8.65;100.00
7433;BME280;32233;49.500;7.764;2022-10-31T02:17:51;98959.03;;;8.75;100.00
7433;BME280;32233;49.500;7.764;2022-10-31T02:20:20;98955.06;;;8.56;100.00
7433;BME280;32233;49.500;7.764;2022-10-31T02:25:46;98956.28;;;8.68;100.00
7433;BME280;32233;49.500;7.764;2022-10-31T02:28:40;98945.75;;;8.46;100.00
7433;BME280;32233;49.500;7.764;2022-10-31T02:34:21;98939.94;;;8.73;100.00
7433;BME280;32233;49.500;7.764;2022-10-31T02:39:23;98937.41;;;8.80;100.00
7433;BME280;32233;49.500;7.764;2022-10-31T02:42:08;98936.00;;;8.92;100.00
7433;BME280;32233;49.500;7.764;2022-10-31T02:44:59;98938.22;;;9.03;100.00
7433;BME280;32233;49.500;7.764;2022-10-31T02:47:28;98932.47;;;9.00;100.00
7433;BME280;32233;49.500;7.764;2022-10-31T02:50:02;98932.47;;;9.00;100.00
7433;BME280;32233;49.500;7.764;2022-10-31T02:52:33;98930.81;;;8.84;100.00
7433;BME280;32233;49.500;7.764;2022-10-31T02:58:09;98919.44;;;8.60;100.00
7433;BME280;32233;49.500;7.764;2022-10-31T03:00:55;98926.19;;;8.63;100.00
7433;BME280;32233;49.500;7.764;2022-10-31T03:03:36;98921.31;;;8.75;100.00
7433;BME280;32233;49.500;7.764;2022-10-31T03:06:16;98928.63;;;8.87;100.00
7433;BME280;32233;49.500;7.764;2022-10-31T03:14:26;98931.81;;;8.60;100.00
7433;BME280;32233;49.500;7.764;2022-10-31T03:17:01;98927.66;;;8.65;100.00
7433;BME280;32233;49.500;7.764;2022-10-31T03:19:34;98938.78;;;8.53;100.00
7433;BME280;32233;49.500;7.764;2022-10-31T03:22:07;98934.63;;;8.58;100.00
7433;BME280;32233;49.500;7.764;2022-10-31T03:24:38;98936.84;;;8.47;100.00
7433;BME280;32233;49.500;7.764;2022-10-31T03:27:07;98932.13;;;8.42;100.00
7433;BME280;32233;49.500;7.764;2022-10-31T03:29:37;98935.56;;;8.65;100.00
7433;BME280;32233;49.500;7.764;2022-10-31T03:32:31;98928.19;;;8.38;100.00
7433;BME280;32233;49.500;7.764;2022-10-31T03:35:05;98931.34;;;8.56;100.00
7433;BME280;32233;49.500;7.764;2022-10-31T03:37:34;98928.97;;;8.70;100.00
7433;BME280;32233;49.500;7.764;2022-10-31T03:40:02;98927.66;;;8.42;100.00
7433;BME280;32233;49.500;7.764;2022-10-31T03:42:34;98929.03;;;8.30;100.00
7433;BME280;32233;49.500;7.764;2022-10-31T03:45:12;98935.41;;;8.36;100.00
7433;BME280;32233;49.500;7.764;2022-10-31T03:47:42;98929.91;;;8.23;100.00
7433;BME280;32233;49.500;7.764;2022-10-31T03:50:13;98921.94;;;8.31;100.00
7433;BME280;32233;49.500;7.764;2022-10-31T03:52:53;98935.34;;;8.21;100.00
7433;BME280;32233;49.500;7.764;2022-10-31T03:55:30;98930.94;;;8.44;100.00
7433;BME280;32233;49.500;7.764;2022-10-31T03:58:26;98926.28;;;8.24;100.00
7433;BME280;32233;49.500;7.764;2022-10-31T04:00:55;98933.78;;;8.35;100.00
7433;BME280;32233;49.500;7.764;2022-10-31T04:03:27;98926.75;;;8.27;100.00
7433;BME280;32233;49.500;7.764;2022-10-31T04:06:03;98933.63;;;8.05;100.00
7433;BME280;32233;49.500;7.764;2022-10-31T04:08:39;98933.38;;;7.92;100.00
7433;BME280;32233;49.500;7.764;2022-10-31T04:11:08;98926.97;;;7.86;100.00
7433;BME280;32233;49.500;7.764;2022-10-31T04:13:42;98928.53;;;8.04;100.00
7433;BME280;32233;49.500;7.764;2022-10-31T04:16:15;98920.53;;;8.20;100.00
7433;BME280;32233;49.500;7.764;2022-10-31T04:18:43;98925.31;;;8.25;100.00
7433;BME280;32233;49.500;7.764;2022-10-31T04:21:10;98926.22;;;8.09;100.00
7433;BME280;32233;49.500;7.764;2022-10-31T04:23:37;98929.91;;;8.23;100.00
7433;BME280;32233;49.500;7.764;2022-10-31T04:26:12;98931.06;;;8.20;100.00
7433;BME280;32233;49.500;7.764;2022-10-31T04:28:42;98925.78;;;8.20;100.00
7433;BME280;32233;49.500;7.764;2022-10-31T04:31:11;98922.19;;;8.21;100.00
7433;BME280;32233;49.500;7.764;2022-10-31T04:33:38;98933.06;;;8.18;100.00
7433;BME280;32233;49.500;7.764;2022-10-31T04:36:05;98929.81;;;8.08;100.00
7433;BME280;32233;49.500;7.764;2022-10-31T04:38:32;98922.38;;;7.88;100.00
7433;BME280;32233;49.500;7.764;2022-10-31T04:41:02;98923.66;;;7.92;100.00
7433;BME280;32233;49.500;7.764;2022-10-31T04:43:31;98922.75;;;7.77;100.00
7433;BME280;32233;49.500;7.764;2022-10-31T04:45:59;98921.41;;;7.81;100.00
7433;BME280;32233;49.500;7.764;2022-10-31T04:48:27;98917.34;;;7.70;100.00
7433;BME280;32233;49.500;7.764;2022-10-31T04:51:00;98920.44;;;7.74;100.00
7433;BME280;32233;49.500;7.764;2022-10-31T04:53:28;98926.50;;;7.83;100.00
7433;BME280;32233;49.500;7.764;2022-10-31T04:56:15;98914.00;;;7.85;100.00
7433;BME280;32233;49.500;7.764;2022-10-31T04:58:45;98922.31;;;7.65;100.00
7433;BME280;32233;49.500;7.764;2022-10-31T05:01:12;98921.84;;;7.93;100.00
7433;BME280;32233;49.500;7.764;2022-10-31T05:03:39;98915.88;;;7.99;100.00
7433;BME280;32233;49.500;7.764;2022-10-31T05:06:06;98917.66;;;7.76;100.00
7433;BME280;32233;49.500;7.764;2022-10-31T05:08:34;98913.06;;;7.69;100.00
7433;BME280;32233;49.500;7.764;2022-10-31T05:11:04;98916.41;;;7.63;100.00
7433;BME280;32233;49.500;7.764;2022-10-31T05:13:32;98913.28;;;7.91;100.00
7433;BME280;32233;49.500;7.764;2022-10-31T05:16:11;98910.56;;;8.07;100.00
7433;BME280;32233;49.500;7.764;2022-10-31T05:19:07;98909.41;;;8.10;100.00
7433;BME280;32233;49.500;7.764;2022-10-31T05:21:52;98907.72;;;7.86;100.00
7433;BME280;32233;49.500;7.764;2022-10-31T05:24:19;98904.31;;;7.77;100.00
7433;BME280;32233;49.500;7.764;2022-10-31T05:26:48;98891.28;;;7.92;100.00
7433;BME280;32233;49.500;7.764;2022-10-31T05:29:16;98904.47;;;7.84;100.00
7433;BME280;32233;49.500;7.764;2022-10-31T05:31:43;98894.66;;;7.69;100.00
7433;BME280;32233;49.500;7.764;2022-10-31T05:34:22;98898.84;;;7.87;100.00
7433;BME280;32233;49.500;7.764;2022-10-31T05:37:12;98899.91;;;7.69;100.00
7433;BME280;32233;49.500;7.764;2022-10-31T05:39:40;98887.38;;;7.80;100.00
7433;BME280;32233;49.500;7.764;2022-10-31T05:42:13;98878.34;;;7.74;100.00
7433;BME280;32233;49.500;7.764;2022-10-31T05:44:40;98882.47;;;7.77;100.00
7433;BME280;32233;49.500;7.764;2022-10-31T05:47:30;98876.91;;;7.72;100.00
7433;BME280;32233;49.500;7.764;2022-10-31T05:50:32;98880.63;;;7.77;100.00
7433;BME280;32233;49.500;7.764;2022-10-31T05:53:07;98880.38;;;7.64;100.00
7433;BME280;32233;49.500;7.764;2022-10-31T05:55:36;98881.53;;;7.61;100.00
7433;BME280;32233;49.500;7.764;2022-10-31T05:58:09;98873.66;;;7.61;100.00
7433;BME280;32233;49.500;7.764;2022-10-31T06:00:38;98872.75;;;7.77;100.00
7433;BME280;32233;49.500;7.764;2022-10-31T06:03:09;98877.63;;;7.88;100.00
7433;BME280;32233;49.500;7.764;2022-10-31T06:05:46;98879.00;;;7.76;100.00
7433;BME280;32233;49.500;7.764;2022-10-31T06:08:20;98870.16;;;7.69;100.00
7433;BME280;32233;49.500;7.764;2022-10-31T06:10:47;98878.06;;;7.69;100.00
7433;BME280;32233;49.500;7.764;2022-10-31T06:13:19;98869.81;;;7.72;100.00
7433;BME280;32233;49.500;7.764;2022-10-31T06:15:58;98874.28;;;7.72;100.00
7433;BME280;32233;49.500;7.764;2022-10-31T06:18:32;98872.44;;;7.72;100.00
7433;BME280;32233;49.500;7.764;2022-10-31T06:20:59;98867.56;;;7.92;100.00
7433;BME280;32233;49.500;7.764;2022-10-31T06:23:27;98871.44;;;8.04;100.00
7433;BME280;32233;49.500;7.764;2022-10-31T06:26:13;98878.44;;;8.12;100.00
7433;BME280;32233;49.500;7.764;2022-10-31T06:28:40;98870.69;;;7.87;100.00
7433;BME280;32233;49.500;7.764;2022-10-31T06:31:25;98875.53;;;7.84;100.00
7433;BME280;32233;49.500;7.764;2022-10-31T06:33:52;98878.31;;;7.82;100.00
7433;BME280;32233;49.500;7.764;2022-10-31T06:36:18;98880.44;;;8.10;100.00
7433;BME280;32233;49.500;7.764;2022-10-31T06:38:46;98878.38;;;8.20;100.00
7433;BME280;32233;49.500;7.764;2022-10-31T06:41:15;98881.44;;;8.09;100.00
7433;BME280;32233;49.500;7.764;2022-10-31T06:43:46;98882.31;;;8.01;100.00
7433;BME280;32233;49.500;7.764;2022-10-31T06:46:42;98883.91;;;8.10;100.00
7433;BME280;32233;49.500;7.764;2022-10-31T06:49:27;98879.53;;;8.26;100.00
7433;BME280;32233;49.500;7.764;2022-10-31T06:51:58;98882.63;;;8.29;100.00
7433;BME280;32233;49.500;7.764;2022-10-31T06:54:25;98871.69;;;8.40;100.00
7433;BME280;32233;49.500;7.764;2022-10-31T06:56:53;98873.69;;;8.76;100.00
7433;BME280;32233;49.500;7.764;2022-10-31T06:59:20;98877.81;;;8.79;100.00
7433;BME280;32233;49.500;7.764;2022-10-31T07:02:10;98874.81;;;8.97;100.00
7433;BME280;32233;49.500;7.764;2022-10-31T07:04:38;98879.53;;;9.01;100.00
7433;BME280;32233;49.500;7.764;2022-10-31T07:07:06;98875.72;;;8.89;100.00
7433;BME280;32233;49.500;7.764;2022-10-31T07:09:34;98875.94;;;9.02;100.00
7433;BME280;32233;49.500;7.764;2022-10-31T07:12:03;98874.91;;;8.88;100.00
7433;BME280;32233;49.500;7.764;2022-10-31T07:14:31;98879.31;;;9.11;100.00
7433;BME280;32233;49.500;7.764;2022-10-31T07:16:59;98873.84;;;9.27;100.00
7433;BME280;32233;49.500;7.764;2022-10-31T07:19:32;98874.00;;;9.55;100.00
7433;BME280;32233;49.500;7.764;2022-10-31T07:21:58;98876.72;;;9.62;100.00
7433;BME280;32233;49.500;7.764;2022-10-31T07:24:27;98882.44;;;9.80;100.00
7433;BME280;32233;49.500;7.764;2022-10-31T07:27:14;98875.47;;;9.94;100.00
7433;BME280;32233;49.500;7.764;2022-10-31T07:29:42;98878.75;;;9.96;100.00
7433;BME280;32233;49.500;7.764;2022-10-31T07:32:08;98886.00;;;9.73;100.00
7433;BME280;32233;49.500;7.764;2022-10-31T07:34:39;98882.34;;;9.74;100.00
7433;BME280;32233;49.500;7.764;2022-10-31T07:37:21;98875.66;;;10.29;100.00
7433;BME280;32233;49.500;7.764;2022-10-31T07:39:47;98884.88;;;10.61;100.00
7433;BME280;32233;49.500;7.764;2022-10-31T07:42:15;98884.72;;;10.69;100.00
7433;BME280;32233;49.500;7.764;2022-10-31T07:44:44;98886.53;;;10.62;100.00
7433;BME280;32233;49.500;7.764;2022-10-31T07:47:28;98883.31;;;10.66;100.00
7433;BME280;32233;49.500;7.764;2022-10-31T07:50:17;98888.00;;;10.71;100.00
7433;BME280;32233;49.500;7.764;2022-10-31T07:53:10;98888.56;;;10.24;100.00
7433;BME280;32233;49.500;7.764;2022-10-31T07:55:38;98884.28;;;10.37;100.00
7433;BME280;32233;49.500;7.764;2022-10-31T07:58:09;98887.97;;;10.43;100.00
7433;BME280;32233;49.500;7.764;2022-10-31T08:00:40;98882.22;;;10.61;100.00
7433;BME280;32233;49.500;7.764;2022-10-31T08:03:15;98879.50;;;10.76;100.00
7433;BME280;32233;49.500;7.764;2022-10-31T08:06:01;98878.06;;;10.73;100.00
7433;BME280;32233;49.500;7.764;2022-10-31T08:08:28;98883.78;;;10.77;100.00
7433;BME280;32233;49.500;7.764;2022-10-31T08:11:00;98880.41;;;10.89;100.00
7433;BME280;32233;49.500;7.764;2022-10-31T08:13:28;98886.09;;;10.86;100.00
7433;BME280;32233;49.500;7.764;2022-10-31T08:15:57;98887.19;;;11.27;100.00
7433;BME280;32233;49.500;7.764;2022-10-31T08:18:31;98882.13;;;11.38;100.00
7433;BME280;32233;49.500;7.764;2022-10-31T08:20:58;98884.28;;;11.56;100.00
7433;BME280;32233;49.500;7.764;2022-10-31T08:23:25;98880.44;;;11.65;100.00
7433;BME280;32233;49.500;7.764;2022-10-31T08:25:54;98887.22;;;11.33;100.00
7433;BME280;32233;49.500;7.764;2022-10-31T08:28:22;98884.72;;;11.60;100.00
7433;BME280;32233;49.500;7.764;2022-10-31T08:30:50;98886.47;;;11.46;100.00
7433;BME280;32233;49.500;7.764;2022-10-31T08:33:37;98886.19;;;11.34;100.00
7433;BME280;32233;49.500;7.764;2022-10-31T08:36:22;98892.19;;;11.91;100.00
7433;BME280;32233;49.500;7.764;2022-10-31T08:38:54;98876.09;;;11.99;100.00
7433;BME280;32233;49.500;7.764;2022-10-31T08:41:28;98878.97;;;11.98;100.00
7433;BME280;32233;49.500;7.764;2022-10-31T08:43:57;98884.66;;;11.95;100.00
7433;BME280;32233;49.500;7.764;2022-10-31T08:46:24;98877.56;;;12.15;100.00
7433;BME280;32233;49.500;7.764;2022-10-31T08:48:51;98878.84;;;12.46;100.00
7433;BME280;32233;49.500;7.764;2022-10-31T08:51:19;98873.53;;;12.85;100.00
7433;BME280;32233;49.500;7.764;2022-10-31T08:53:51;98865.59;;;12.46;100.00
7433;BME280;32233;49.500;7.764;2022-10-31T08:56:38;98862.53;;;12.75;100.00
7433;BME280;32233;49.500;7.764;2022-10-31T08:59:22;98862.09;;;13.05;98.22
7433;BME280;32233;49.500;7.764;2022-10-31T09:02:22;98862.31;;;13.03;97.20
7433;BME280;32233;49.500;7.764;2022-10-31T09:04:51;98856.81;;;12.92;98.07
7433;BME280;32233;49.500;7.764;2022-10-31T09:07:18;98848.81;;;13.11;97.17
7433;BME280;32233;49.500;7.764;2022-10-31T09:09:46;98850.44;;;13.06;98.08
7433;BME280;32233;49.500;7.764;2022-10-31T09:12:13;98839.69;;;13.59;96.25
7433;BME280;32233;49.500;7.764;2022-10-31T09:14:55;98849.16;;;13.86;93.23
7433;BME280;32233;49.500;7.764;2022-10-31T09:17:30;98845.97;;;13.71;94.96
7433;BME280;32233;49.500;7.764;2022-10-31T09:20:15;98842.84;;;14.19;91.81
7433;BME280;32233;49.500;7.764;2022-10-31T09:22:42;98829.84;;;14.36;89.48
7433;BME280;32233;49.500;7.764;2022-10-31T09:25:08;98832.28;;;14.12;91.59
7433;BME280;32233;49.500;7.764;2022-10-31T09:27:37;98831.53;;;13.99;92.69
7433;BME280;32233;49.500;7.764;2022-10-31T09:30:06;98829.47;;;14.01;90.84
7433;BME280;32233;49.500;7.764;2022-10-31T09:32:33;98820.84;;;14.37;90.69
7433;BME280;32233;49.500;7.764;2022-10-31T09:34:59;98826.72;;;14.46;92.43
7433;BME280;32233;49.500;7.764;2022-10-31T09:37:27;98825.34;;;14.86;89.05
7433;BME280;32233;49.500;7.764;2022-10-31T09:39:53;98822.66;;;15.11;87.73
7433;BME280;32233;49.500;7.764;2022-10-31T09:42:49;98818.50;;;15.34;89.01
7433;BME280;32233;49.500;7.764;2022-10-31T09:45:25;98819.09;;;15.36;86.20
7433;BME280;32233;49.500;7.764;2022-10-31T09:51:14;98817.09;;;15.68;84.50
7433;BME280;32233;49.500;7.764;2022-10-31T09:54:28;98811.22;;;15.78;80.71
7433;BME280;32233;49.500;7.764;2022-10-31T09:56:57;98809.50;;;16.25;79.56
7433;BME280;32233;49.500;7.764;2022-10-31T09:59:31;98798.84;;;16.37;79.00
7433;BME280;32233;49.500;7.764;2022-10-31T10:02:10;98801.97;;;16.34;77.88
7433;BME280;32233;49.500;7.764;2022-10-31T10:23:19;98783.00;;;17.41;74.07
7433;BME280;32233;49.500;7.764;2022-10-31T10:25:57;98775.44;;;17.78;71.76
7433;BME280;32233;49.500;7.764;2022-10-31T10:28:37;98790.59;;;17.61;72.51
7433;BME280;32233;49.500;7.764;2022-10-31T10:31:13;98784.03;;;17.52;71.67
7433;BME280;32233;49.500;7.764;2022-10-31T10:33:54;98787.47;;;17.93;70.92
7433;BME280;32233;49.500;7.764;2022-10-31T10:36:33;98795.19;;;17.49;72.77
7433;BME280;32233;49.500;7.764;2022-10-31T10:39:45;98792.91;;;17.69;71.48
7433;BME280;32233;49.500;7.764;2022-10-31T10:42:15;98788.47;;;17.75;73.67
7433;BME280;32233;49.500;7.764;2022-10-31T10:45:13;98792.38;;;18.13;70.58
7433;BME280;32233;49.500;7.764;2022-10-31T10:48:06;98783.59;;;18.00;69.21
7433;BME280;32233;49.500;7.764;2022-10-31T10:50:40;98793.31;;;17.90;69.31
7433;BME280;32233;49.500;7.764;2022-10-31T10:58:23;98776.94;;;18.37;67.07
7433;BME280;32233;49.500;7.764;2022-10-31T11:00:52;98778.28;;;18.34;67.02
7433;BME280;32233;49.500;7.764;2022-10-31T11:03:19;98767.97;;;18.26;69.31
7433;BME280;32233;49.500;7.764;2022-10-31T11:08:35;98738.63;;;18.31;67.95
7433;BME280;32233;49.500;7.764;2022-10-31T11:13:46;98733.34;;;19.14;64.47
7433;BME280;32233;49.500;7.764;2022-10-31T11:16:26;98734.66;;;19.11;64.01
7433;BME280;32233;49.500;7.764;2022-10-31T11:19:06;98731.69;;;19.57;64.72
7433;BME280;32233;49.500;7.764;2022-10-31T11:21:34;98727.25;;;19.67;65.50
7433;BME280;32233;49.500;7.764;2022-10-31T11:24:21;98719.78;;;19.69;63.42
7433;BME280;32233;49.500;7.764;2022-10-31T11:26:50;98720.88;;;19.24;65.88
7433;BME280;32233;49.500;7.764;2022-10-31T11:29:22;98719.31;;;19.28;66.33
7433;BME280;32233;49.500;7.764;2022-10-31T11:31:55;98718.50;;;19.06;67.43
7433;BME280;32233;49.500;7.764;2022-10-31T11:34:28;98718.00;;;19.09;65.70
7433;BME280;32233;49.500;7.764;2022-10-31T11:37:04;98705.56;;;18.98;65.46
7433;BME280;32233;49.500;7.764;2022-10-31T11:39:41;98712.53;;;18.60;70.00
7433;BME280;32233;49.500;7.764;2022-10-31T11:42:08;98702.50;;;19.11;66.36
7433;BME280;32233;49.500;7.764;2022-10-31T11:44:35;98700.00;;;19.04;66.22
7433;BME280;32233;49.500;7.764;2022-10-31T11:47:05;98698.09;;;18.78;66.58
7433;BME280;32233;49.500;7.764;2022-10-31T11:49:40;98694.91;;;18.81;68.46
7433;BME280;32233;49.500;7.764;2022-10-31T11:52:14;98703.28;;;18.68;67.18
7433;BME280;32233;49.500;7.764;2022-10-31T11:57:41;98691.44;;;19.02;67.10
7433;BME280;32233;49.500;7.764;2022-10-31T12:00:26;98688.63;;;18.70;67.22
7433;BME280;32233;49.500;7.764;2022-10-31T12:05:39;98675.78;;;18.34;71.29
7433;BME280;32233;49.500;7.764;2022-10-31T12:08:09;98673.84;;;18.12;70.47
7433;BME280;32233;49.500;7.764;2022-10-31T12:11:08;98668.19;;;18.09;73.24
7433;BME280;32233;49.500;7.764;2022-10-31T12:13:56;98659.06;;;18.26;71.88
7433;BME280;32233;49.500;7.764;2022-10-31T12:27:59;98661.19;;;17.74;75.86
7433;BME280;32233;49.500;7.764;2022-10-31T12:33:21;98637.78;;;17.98;74.13
7433;BME280;32233;49.500;7.764;2022-10-31T12:36:04;98620.63;;;17.94;73.64
7433;BME280;32233;49.500;7.764;2022-10-31T12:44:46;98623.81;;;17.62;76.26
7433;BME280;32233;49.500;7.764;2022-10-31T12:58:01;98616.47;;;17.86;75.81
7433;BME280;32233;49.500;7.764;2022-10-31T13:00:32;98618.31;;;17.69;76.73
7433;BME280;32233;49.500;7.764;2022-10-31T13:03:21;98623.66;;;17.52;79.04
7433;BME280;32233;49.500;7.764;2022-10-31T13:05:54;98627.38;;;17.51;79.33
7433;BME280;32233;49.500;7.764;2022-10-31T13:08:33;98631.91;;;17.67;77.03
7433;BME280;32233;49.500;7.764;2022-10-31T13:14:54;98622.53;;;18.15;74.37
7433;BME280;32233;49.500;7.764;2022-10-31T13:20:42;98595.25;;;18.35;74.88
7433;BME280;32233;49.500;7.764;2022-10-31T13:23:29;98591.75;;;18.56;73.71
7433;BME280;32233;49.500;7.764;2022-10-31T13:29:36;98588.00;;;18.36;72.92
7433;BME280;32233;49.500;7.764;2022-10-31T13:32:06;98592.13;;;18.21;74.96
7433;BME280;32233;49.500;7.764;2022-10-31T13:34:37;98584.69;;;18.06;75.51
7433;BME280;32233;49.500;7.764;2022-10-31T13:43:00;98569.31;;;17.29;80.40
7433;BME280;32233;49.500;7.764;2022-10-31T13:45:31;98568.63;;;17.22;78.83
7433;BME280;32233;49.500;7.764;2022-10-31T13:48:00;98570.63;;;17.27;80.41
7433;BME280;32233;49.500;7.764;2022-10-31T13:50:30;98570.00;;;17.08;81.97
7433;BME280;32233;49.500;7.764;2022-10-31T13:56:23;98569.78;;;17.26;79.37
7433;BME280;32233;49.500;7.764;2022-10-31T13:59:15;98565.41;;;17.03;80.51
7433;BME280;32233;49.500;7.764;2022-10-31T14:01:48;98560.94;;;17.09;81.26
7433;BME280;32233;49.500;7.764;2022-10-31T14:04:18;98552.75;;;16.99;78.34
7433;BME280;32233;49.500;7.764;2022-10-31T14:06:55;98544.59;;;17.05;81.40
7433;BME280;32233;49.500;7.764;2022-10-31T14:09:27;98558.19;;;17.04;81.81
7433;BME280;32233;49.500;7.764;2022-10-31T14:11:55;98546.06;;;16.56;86.23
7433;BME280;32233;49.500;7.764;2022-10-31T14:14:29;98543.81;;;16.76;85.76
7433;BME280;32233;49.500;7.764;2022-10-31T14:16:57;98538.59;;;16.70;85.60
7433;BME280;32233;49.500;7.764;2022-10-31T14:19:26;98544.22;;;16.45;89.02
7433;BME280;32233;49.500;7.764;2022-10-31T14:21:53;98539.94;;;16.44;88.41
7433;BME280;32233;49.500;7.764;2022-10-31T14:27:32;98533.19;;;16.53;90.31
7433;BME280;32233;49.500;7.764;2022-10-31T14:29:51;98526.50;;;16.39;89.62
7433;BME280;32233;49.500;7.764;2022-10-31T14:32:25;98524.78;;;16.32;89.64
7433;BME280;32233;49.500;7.764;2022-10-31T14:34:57;98516.56;;;16.34;90.30
7433;BME280;32233;49.500;7.764;2022-10-31T14:40:17;98485.91;;;16.65;87.58
7433;BME280;32233;49.500;7.764;2022-10-31T14:46:01;98466.75;;;16.68;85.21
7433;BME280;32233;49.500;7.764;2022-10-31T14:48:39;98442.25;;;16.71;85.49
7433;BME280;32233;49.500;7.764;2022-10-31T14:51:20;98471.91;;;16.87;84.18
7433;BME280;32233;49.500;7.764;2022-10-31T14:53:48;98489.00;;;17.02;83.32
7433;BME280;32233;49.500;7.764;2022-10-31T14:56:27;98441.66;;;16.98;83.89
7433;BME280;32233;49.500;7.764;2022-10-31T14:58:59;98457.13;;;17.13;81.40
7433;BME280;32233;49.500;7.764;2022-10-31T15:01:35;98461.78;;;17.56;79.87
7433;BME280;32233;49.500;7.764;2022-10-31T15:04:15;98424.16;;;17.24;79.90
7433;BME280;32233;49.500;7.764;2022-10-31T15:06:54;98416.72;;;17.26;78.54
7433;BME280;32233;49.500;7.764;2022-10-31T15:09:31;98427.00;;;17.17;81.24
7433;BME280;32233;49.500;7.764;2022-10-31T15:11:59;98422.25;;;17.02;79.79
7433;BME280;32233;49.500;7.764;2022-10-31T15:14:28;98418.03;;;17.06;82.00
7433;BME280;32233;49.500;7.764;2022-10-31T15:16:57;98405.50;;;16.90;83.23
7433;BME280;32233;49.500;7.764;2022-10-31T15:19:27;98400.41;;;16.43;84.00
7433;BME280;32233;49.500;7.764;2022-10-31T15:21:56;98393.03;;;16.33;85.19
7433;BME280;32233;49.500;7.764;2022-10-31T15:24:34;98386.16;;;16.21;86.42
7433;BME280;32233;49.500;7.764;2022-10-31T15:27:02;98386.38;;;16.19;86.38
7433;BME280;32233;49.500;7.764;2022-10-31T15:29:31;98393.22;;;16.15;85.74
7433;BME280;32233;49.500;7.764;2022-10-31T15:32:18;98402.63;;;15.89;87.11
7433;BME280;32233;49.500;7.764;2022-10-31T15:34:44;98389.56;;;15.76;87.29
7433;BME280;32233;49.500;7.764;2022-10-31T15:37:12;98376.81;;;15.54;88.85
7433;BME280;32233;49.500;7.764;2022-10-31T15:39:43;98375.22;;;15.42;88.34